Latest Weather Observations for Gladstone

IDQ60801

Issued at 2:32 pm EST Sunday 21 December 2014 (issued every 30 minutes, with the page automatically refreshed every 10 minutes)

About weather observations | Map of weather stations | Latest weather observations for QLD | Other Formats
Station Details ID: 039123 Name: GLADSTONE RADAR Lat: -23.86 Lon: 151.26 Height: 74.5 m
Data from the previous 72 hours. | See also: Recent months at Gladstone
Date/Time
EST
Temp
°C
App
Temp
°C
Dew
Point
Rel
Hum
%
Delta-T
°C
Wind Press
QNH
hPa
Press
MSL
hPa
Rain
since 9 am
mm
Dir
 
Spd
km/h
Gust
km/h
Spd
kts
Gust
kts
21/02:30pm 28.6 28.2 20.1 60 5.6 ENE 22 32 12 17 1014.4 1014.0 0.0
21/02:00pm 29.5 29.6 20.4 58 6.0 ENE 20 32 11 17 1014.7 1014.3 0.0
21/01:30pm 29.3 29.7 20.7 59 5.7 ENE 19 30 10 16 1015.2 1014.8 0.0
21/01:00pm 29.4 29.5 20.0 57 6.2 ENE 19 26 10 14 1015.4 1015.0 0.0
21/12:30pm 30.4 30.8 20.9 57 6.3 ENE 20 30 11 16 1015.7 1015.3 0.0
21/12:00pm 30.3 30.3 20.2 54 6.7 ENE 20 28 11 15 1016.0 1015.6 0.0
21/11:30am 30.8 30.9 20.4 54 6.9 ENE 20 28 11 15 1016.3 1015.9 0.0
21/11:00am 30.4 29.9 20.0 53 6.9 E 22 32 12 17 1016.4 1016.0 0.0
21/10:30am 29.0 28.5 19.9 58 6.0 E 22 32 12 17 1016.5 1016.1 0.0
21/10:00am 30.0 30.2 20.5 56 6.3 E 20 30 11 16 1016.7 1016.3 0.0
21/09:30am 28.5 27.8 19.4 57 5.9 E 22 35 12 19 1016.6 1016.2 0.0
21/09:00am 29.1 29.4 20.5 59 5.7 E 19 28 10 15 1016.5 1016.1 0.0
21/08:30am 29.1 28.9 20.5 59 5.7 ENE 22 30 12 16 1016.3 1015.9 0.0
21/08:00am 28.5 28.8 20.5 62 5.3 E 19 28 10 15 1016.3 1015.9 0.0
21/07:30am 27.5 27.8 20.8 67 4.4 E 20 30 11 16 1016.1 1015.7 0.0
21/07:00am 25.6 25.2 20.2 72 3.5 E 22 32 12 17 1015.7 1015.3 0.0
21/06:30am 25.7 25.8 20.0 71 3.7 E 19 30 10 16 1015.5 1015.1 0.0
21/06:00am 24.8 24.2 19.8 74 3.2 E 22 30 12 16 1014.9 1014.5 0.0
21/05:30am 24.3 23.9 20.2 78 2.7 E 22 30 12 16 1014.5 1014.1 0.0
21/05:00am 24.2 24.1 19.9 77 2.8 E 20 28 11 15 1014.1 1013.7 0.0
21/04:30am 24.1 24.0 20.0 78 2.7 E 20 28 11 15 1013.9 1013.5 0.0
21/04:00am 24.2 24.1 19.9 77 2.8 E 20 26 11 14 1013.8 1013.4 0.0
21/03:30am 24.3 24.2 20.0 77 2.8 E 20 26 11 14 1013.6 1013.2 0.0
21/03:00am 24.2 24.2 20.1 78 2.7 E 20 28 11 15 1013.4 1013.0 0.0
21/02:30am 24.1 23.8 20.4 80 2.4 ENE 22 32 12 17 1013.4 1013.0 0.0
21/02:00am 24.2 23.7 19.9 77 2.8 E 22 30 12 16 1013.8 1013.4 0.0
21/01:30am 24.6 23.9 20.3 77 2.8 E 24 33 13 18 1014.0 1013.6 0.0
21/01:00am 24.6 24.2 20.1 76 2.9 E 22 30 12 16 1014.1 1013.7 0.0
21/12:30am 24.5 24.2 20.4 78 2.7 ENE 22 33 12 18 1014.3 1013.9 0.0
21/12:00am 24.7 24.8 20.4 77 2.8 E 20 30 11 16 1014.6 1014.2 0.0
 
Date/Time
EST
Temp
°C
App
Temp
°C
Dew
Point
Rel
Hum
%
Delta-T
°C
Wind Press
QNH
hPa
Press
MSL
hPa
Rain
since 9 am
mm
Dir
 
Spd
km/h
Gust
km/h
Spd
kts
Gust
kts
20/11:30pm 24.9 24.3 20.6 77 2.8 E 24 32 13 17 1014.9 1014.5 0.0
20/11:00pm 25.0 24.0 20.5 76 2.9 E 26 35 14 19 1015.1 1014.7 0.0
20/10:30pm 25.2 24.7 20.7 76 3.0 ENE 24 33 13 18 1015.4 1015.0 0.0
20/10:00pm 25.2 25.0 21.3 79 2.6 ENE 24 35 13 19 1015.3 1014.9 0.0
20/09:30pm 24.9 24.3 20.6 77 2.8 E 24 32 13 17 1015.1 1014.7 0.0
20/09:00pm 25.0 24.6 20.9 78 2.7 E 24 35 13 19 1014.8 1014.4 0.0
20/08:30pm 25.0 24.7 21.1 79 2.6 E 24 32 13 17 1014.4 1014.0 0.0
20/08:00pm 25.2 24.9 21.1 78 2.7 E 24 33 13 18 1014.2 1013.8 0.0
20/07:30pm 25.3 25.3 21.0 77 2.8 E 22 35 12 19 1013.9 1013.5 0.0
20/07:00pm 25.3 24.7 21.2 78 2.7 E 26 35 14 19 1013.4 1013.0 0.0
20/06:30pm 25.5 26.0 21.2 77 2.8 E 20 32 11 17 1013.1 1012.7 0.0
20/06:00pm 25.7 25.2 20.7 74 3.3 E 24 32 13 17 1012.6 1012.2 0.0
20/05:30pm 26.8 26.9 21.1 71 3.8 E 22 32 12 17 1012.3 1011.9 0.0
20/05:00pm 27.5 28.4 22.0 72 3.7 E 20 35 11 19 1011.9 1011.4 0.0
20/04:30pm 26.9 26.3 20.5 68 4.2 E 24 37 13 20 1011.5 1011.0 0.0
20/04:00pm 28.8 28.4 21.0 62 5.2 ENE 24 33 13 18 1011.7 1011.2 0.0
20/03:30pm 29.3 28.9 21.0 61 5.5 ENE 24 33 13 18 1011.7 1011.2 0.0
20/03:00pm 30.0 30.2 21.4 60 5.8 ENE 22 35 12 19 1011.8 1011.3 0.0
20/02:30pm 29.9 29.9 21.0 59 5.9 ENE 22 32 12 17 1012.2 1011.7 0.0
20/02:00pm 30.6 31.1 21.9 59 5.9 ENE 22 35 12 19 1012.4 1012.0 0.0
20/01:30pm 30.6 30.5 22.2 61 5.7 ENE 26 35 14 19 1012.5 1012.1 0.0
20/01:00pm 30.4 29.8 22.0 60 5.7 ENE 28 37 15 20 1012.8 1012.4 0.0
20/12:30pm 30.7 30.4 22.6 62 5.5 ENE 28 37 15 20 1013.2 1012.8 0.0
20/12:00pm 30.5 31.2 22.9 64 5.2 ENE 24 33 13 18 1013.4 1013.0 0.0
20/11:30am 31.1 31.3 22.1 58 6.1 ENE 24 32 13 17 1013.9 1013.5 0.0
20/11:00am 31.2 31.9 22.2 58 6.1 ENE 22 32 12 17 1014.1 1013.7 0.0
20/10:30am 30.4 30.9 22.0 60 5.7 E 22 32 12 17 1014.3 1013.9 0.0
20/10:00am 30.2 30.8 21.3 59 6.0 E 20 30 11 16 1014.4 1014.0 0.0
20/09:30am 29.8 31.1 21.7 61 5.5 E 17 26 9 14 1014.4 1014.0 0.0
20/09:00am 28.7 29.7 22.2 68 4.4 E 20 30 11 16 1014.3 1013.9 0.2
20/08:30am 27.4 28.2 21.7 71 3.8 ESE 20 28 11 15 1014.2 1013.8 0.2
20/08:00am 28.0 30.5 22.5 72 3.7 ENE 13 22 7 12 1014.1 1013.7 0.2
20/07:30am 27.1 31.6 22.3 75 3.2 SE 2 9 1 5 1013.9 1013.5 0.2
20/07:00am 24.8 28.2 21.7 83 2.1 SSW 6 11 3 6 1013.6 1013.2 0.2
20/06:30am 23.6 27.2 22.4 93 0.8 WSW 7 15 4 8 1013.2 1012.8 0.2
20/06:00am 22.7 25.6 22.5 99 0.1 SW 11 17 6 9 1012.8 1012.4 0.2
20/05:30am 22.5 25.4 22.5 100 0.0 WSW 11 19 6 10 1012.3 1011.9 0.2
20/05:00am 22.2 24.8 22.0 99 0.1 WSW 11 19 6 10 1011.8 1011.3 0.2
20/04:30am 21.9 24.7 21.6 98 0.2 WSW 9 19 5 10 1011.3 1010.8 0.2
20/04:00am 22.4 25.3 21.7 96 0.5 WSW 9 13 5 7 1011.0 1010.5 0.2
20/03:30am 22.4 25.7 21.9 97 0.3 WSW 7 13 4 7 1011.0 1010.5 0.0
20/03:00am 22.5 26.0 21.8 96 0.5 WSW 6 9 3 5 1011.1 1010.6 0.0
20/02:30am 22.6 26.1 21.8 95 0.5 W 6 7 3 4 1011.2 1010.7 0.0
20/02:00am 22.7 26.2 21.9 95 0.5 W 6 7 3 4 1011.5 1011.0 0.0
20/01:30am 22.7 26.2 21.9 95 0.5 W 6 7 3 4 1011.7 1011.2 0.0
20/01:00am 22.7 26.1 21.7 94 0.7 W 6 9 3 5 1011.9 1011.4 0.0
20/12:30am 22.9 26.2 21.5 92 0.9 W 6 7 3 4 1012.2 1011.7 0.0
20/12:00am 23.1 26.4 21.5 91 1.1 W 6 9 3 5 1012.4 1012.0 0.0
 
Date/Time
EST
Temp
°C
App
Temp
°C
Dew
Point
Rel
Hum
%
Delta-T
°C
Wind Press
QNH
hPa
Press
MSL
hPa
Rain
since 9 am
mm
Dir
 
Spd
km/h
Gust
km/h
Spd
kts
Gust
kts
19/11:30pm 23.3 26.7 21.6 90 1.1 W 6 7 3 4 1012.8 1012.4 0.0
19/11:00pm 23.7 27.2 21.8 89 1.3 WNW 6 9 3 5 1013.0 1012.6 0.0
19/10:30pm 24.3 27.2 21.8 86 1.7 NNW 9 11 5 6 1013.3 1012.9 0.0
19/10:00pm 24.4 27.6 21.7 85 1.8 NNW 7 13 4 7 1013.5 1013.1 0.0
19/09:30pm 24.3 27.4 21.4 84 1.9 NW 7 11 4 6 1013.3 1012.9 0.0
19/09:00pm 24.6 27.7 21.5 83 2.1 NNW 7 11 4 6 1013.1 1012.7 0.0
19/08:30pm 24.5 27.2 21.4 83 2.1 N 9 13 5 7 1012.8 1012.4 0.0
19/08:00pm 24.5 27.4 21.0 81 2.3 NNE 7 13 4 7 1012.6 1012.2 0.0
19/07:30pm 24.7 27.6 21.0 80 2.4 N 7 13 4 7 1012.4 1012.0 0.0
19/07:00pm 25.0 28.1 21.1 79 2.6 NE 6 11 3 6 1012.1 1011.6 0.0
19/06:30pm 25.4 28.2 20.9 76 3.0 NNE 7 11 4 6 1011.8 1011.3 0.0
19/06:00pm 26.1 28.8 20.7 72 3.6 NE 7 13 4 7 1011.6 1011.1 0.0
19/05:30pm 26.7 29.1 20.8 70 3.9 NE 9 13 5 7 1011.3 1010.8 0.0
19/05:00pm 27.7 30.1 20.8 66 4.6 NE 9 17 5 9 1011.0 1010.5 0.0
19/04:30pm 28.5 31.6 21.5 66 4.7 NE 7 15 4 8 1011.0 1010.5 0.0
19/04:00pm 28.7 30.9 21.2 64 5.0 NE 11 17 6 9 1011.0 1010.5 0.0
19/03:30pm 28.8 30.8 20.8 62 5.3 NE 11 17 6 9 1011.1 1010.6 0.0
19/03:00pm 28.0 30.5 20.3 63 5.1 NE 7 13 4 7 1011.4 1010.9 0.0
19/02:30pm 27.6 29.9 20.7 66 4.6 ENE 9 15 5 8 1011.4 1010.9 0.0
19/02:00pm 28.2 29.7 20.5 63 5.1 ENE 13 19 7 10 1011.7 1011.2 0.0
19/01:30pm 27.8 30.0 20.4 64 4.9 E 9 15 5 8 1012.2 1011.7 0.0
19/01:00pm 27.3 28.9 19.9 64 4.8 ESE 11 17 6 9 1012.2 1011.7 0.0
19/12:30pm 26.7 28.9 20.5 69 4.1 E 9 15 5 8 1012.5 1012.1 0.0
19/12:00pm 25.9 27.8 20.5 72 3.5 ESE 11 17 6 9 1013.0 1012.6 0.0
19/11:30am 25.7 27.8 20.9 75 3.2 ESE 11 17 6 9 1012.9 1012.5 0.0
19/11:00am 24.8 27.5 21.3 81 2.3 SE 9 17 5 9 1013.1 1012.7 0.0
19/10:30am 24.6 27.4 20.9 80 2.4 SE 7 15 4 8 1013.4 1013.0 0.0
19/10:00am 25.2 27.1 20.5 75 3.1 ESE 11 19 6 10 1013.3 1012.9 0.0
19/09:30am 25.9 27.1 19.8 69 4.0 SE 13 22 7 12 1013.1 1012.7 0.0
19/09:00am 25.4 26.3 19.3 69 3.9 SE 13 20 7 11 1013.4 1013.0 0.0
19/08:30am 25.4 26.0 19.5 70 3.8 SSE 15 22 8 12 1013.2 1012.8 0.0
19/08:00am 24.8 25.7 19.2 71 3.6 SSE 13 20 7 11 1013.0 1012.6 0.0
19/07:30am 24.5 24.6 19.1 72 3.5 SE 17 26 9 14 1012.8 1012.4 0.0
19/07:00am 24.5 24.9 19.1 72 3.5 SSE 15 24 8 13 1012.6 1012.2 0.0
19/06:30am 24.5 24.4 18.7 70 3.7 SE 17 26 9 14 1012.0 1011.5 0.0
19/06:00am 24.5 24.1 18.9 71 3.6 ESE 19 30 10 16 1011.7 1011.2 0.0
19/05:30am 24.5 25.7 20.0 76 2.9 ESE 13 22 7 12 1011.8 1011.3 0.0
19/05:00am 24.7 25.2 20.0 75 3.1 ESE 17 28 9 15 1011.4 1010.9 0.0
19/04:30am 24.9 24.8 19.9 74 3.2 ESE 20 30 11 16 1010.9 1010.4 0.0
19/04:00am 25.0 25.4 20.7 77 2.8 ESE 19 26 10 14 1010.6 1010.1 0.0
19/03:30am 25.2 26.7 20.5 75 3.1 SE 13 20 7 11 1011.1 1010.6 0.0
19/03:00am 25.4 27.5 21.7 80 2.5 SSE 13 20 7 11 1011.2 1010.7 0.0
19/02:30am 25.4 29.3 22.5 84 2.0 SW 6 9 3 5 1011.7 1011.2 0.0
19/02:00am 25.5 29.2 22.6 84 2.0 S 7 9 4 5 1011.5 1011.0 0.0
19/01:30am 25.8 30.8 22.5 82 2.2 CALM 0 4 0 2 1012.0 1011.5 0.0
19/01:00am 25.9 29.2 22.6 82 2.2 NNW 9 13 5 7 1012.2 1011.7 0.0
19/12:30am 25.7 29.6 22.6 83 2.1 W 6 9 3 5 1012.5 1012.1 0.0
19/12:00am 25.7 29.4 22.6 83 2.1 W 7 9 4 5 1012.5 1012.1 0.0
 
Date/Time
EST
Temp
°C
App
Temp
°C
Dew
Point
Rel
Hum
%
Delta-T
°C
Wind Press
QNH
hPa
Press
MSL
hPa
Rain
since 9 am
mm
Dir
 
Spd
km/h
Gust
km/h
Spd
kts
Gust
kts
18/11:30pm 25.9 29.5 22.4 81 2.4 NW 7 11 4 6 1012.8 1012.4 0.0
18/11:00pm 26.1 30.3 22.4 80 2.5 WNW 4 7 2 4 1013.1 1012.7 0.0
18/10:30pm 26.1 30.8 22.6 81 2.4 WNW 2 6 1 3 1012.9 1012.5 0.0
18/10:00pm 25.9 30.1 22.4 81 2.4 WNW 4 9 2 5 1012.6 1012.2 0.0
18/09:30pm 26.0 28.9 22.5 81 2.4 NNW 11 20 6 11 1012.5 1012.1 0.0
18/09:00pm 25.9 29.2 22.6 82 2.2 N 9 19 5 10 1011.7 1011.2 0.0
18/08:30pm 25.9 28.8 22.4 81 2.4 NNW 11 20 6 11 1011.3 1010.8 0.0
18/08:00pm 26.0 28.8 22.3 80 2.5 NNW 11 20 6 11 1011.0 1010.5 0.0
18/07:30pm 26.1 28.6 22.4 80 2.5 N 13 24 7 13 1010.6 1010.1 0.0
18/07:00pm 26.3 28.3 22.2 78 2.8 N 15 24 8 13 1010.4 1009.9 0.0
18/06:30pm 26.8 29.2 22.2 76 3.1 N 13 28 7 15 1010.1 1009.6 0.0
18/06:00pm 27.4 29.4 22.3 73 3.5 NNE 15 24 8 13 1009.9 1009.4 0.0
18/05:30pm 27.6 29.2 22.1 72 3.7 NNE 17 30 9 16 1009.6 1009.1 0.0
18/05:00pm 28.7 31.1 22.2 68 4.4 NNE 13 24 7 13 1009.1 1008.6 0.0
18/04:30pm 29.6 31.8 22.6 66 4.8 NNE 15 32 8 17 1008.6 1008.1 0.0
18/04:00pm 30.1 32.1 23.0 65 4.9 NNE 17 28 9 15 1008.5 1008.0 0.0
18/03:30pm 30.4 32.1 23.1 65 5.0 NNE 19 32 10 17 1008.3 1007.8 0.0
18/03:00pm 30.4 31.8 22.6 63 5.3 NNE 19 33 10 18 1008.5 1008.0 0.0

Other Formats:

Comma delimited format used in spreadsheet applications
http://www.bom.gov.au/fwo/IDQ60801/IDQ60801.94380.axf

JavaScript Object Notation format (JSON) in row-major order
http://www.bom.gov.au/fwo/IDQ60801/IDQ60801.94380.json